sensor_id;sensor_type;location;lat;lon;timestamp;temperature;humidity
65239;SHT30;51827;51.186;6.926;2024-02-26T00:00:06;18.62;51.63
65239;SHT30;51827;51.186;6.926;2024-02-26T00:01:06;18.64;51.63
65239;SHT30;51827;51.186;6.926;2024-02-26T00:02:06;18.65;51.64
65239;SHT30;51827;51.186;6.926;2024-02-26T00:03:07;18.64;51.60
65239;SHT30;51827;51.186;6.926;2024-02-26T00:04:07;18.65;51.62
65239;SHT30;51827;51.186;6.926;2024-02-26T00:05:07;18.64;51.65
65239;SHT30;51827;51.186;6.926;2024-02-26T00:06:08;18.65;51.60
65239;SHT30;51827;51.186;6.926;2024-02-26T00:07:08;18.64;51.63
65239;SHT30;51827;51.186;6.926;2024-02-26T00:08:08;18.65;51.65
65239;SHT30;51827;51.186;6.926;2024-02-26T00:09:09;18.65;51.63
65239;SHT30;51827;51.186;6.926;2024-02-26T00:10:09;18.62;51.65
65239;SHT30;51827;51.186;6.926;2024-02-26T00:11:09;18.62;51.65
65239;SHT30;51827;51.186;6.926;2024-02-26T00:12:10;18.62;51.61
65239;SHT30;51827;51.186;6.926;2024-02-26T00:13:10;18.64;51.65
65239;SHT30;51827;51.186;6.926;2024-02-26T00:14:10;18.62;51.59
65239;SHT30;51827;51.186;6.926;2024-02-26T00:15:11;18.62;51.62
65239;SHT30;51827;51.186;6.926;2024-02-26T00:16:11;18.65;51.57
65239;SHT30;51827;51.186;6.926;2024-02-26T00:17:13;18.64;51.60
65239;SHT30;51827;51.186;6.926;2024-02-26T00:18:13;18.62;51.60
65239;SHT30;51827;51.186;6.926;2024-02-26T00:19:13;18.62;51.62
65239;SHT30;51827;51.186;6.926;2024-02-26T00:20:14;18.64;51.59
65239;SHT30;51827;51.186;6.926;2024-02-26T00:21:14;18.64;51.59
65239;SHT30;51827;51.186;6.926;2024-02-26T00:22:14;18.64;51.58
65239;SHT30;51827;51.186;6.926;2024-02-26T00:23:15;18.65;51.59
65239;SHT30;51827;51.186;6.926;2024-02-26T00:24:16;18.61;51.57
65239;SHT30;51827;51.186;6.926;2024-02-26T00:25:16;18.64;51.58
65239;SHT30;51827;51.186;6.926;2024-02-26T00:26:16;18.62;51.56
65239;SHT30;51827;51.186;6.926;2024-02-26T00:27:17;18.59;51.55
65239;SHT30;51827;51.186;6.926;2024-02-26T00:28:17;18.61;51.56
65239;SHT30;51827;51.186;6.926;2024-02-26T00:29:17;18.62;51.57
65239;SHT30;51827;51.186;6.926;2024-02-26T00:30:17;18.61;51.59
65239;SHT30;51827;51.186;6.926;2024-02-26T00:31:18;18.59;51.58
65239;SHT30;51827;51.186;6.926;2024-02-26T00:32:18;18.62;51.53
65239;SHT30;51827;51.186;6.926;2024-02-26T00:33:18;18.64;51.49
65239;SHT30;51827;51.186;6.926;2024-02-26T00:34:18;18.62;51.52
65239;SHT30;51827;51.186;6.926;2024-02-26T00:35:18;18.62;51.58
65239;SHT30;51827;51.186;6.926;2024-02-26T00:36:19;18.64;51.54
65239;SHT30;51827;51.186;6.926;2024-02-26T00:37:19;18.61;51.52
65239;SHT30;51827;51.186;6.926;2024-02-26T00:38:19;18.62;51.55
65239;SHT30;51827;51.186;6.926;2024-02-26T00:39:19;18.61;51.57
65239;SHT30;51827;51.186;6.926;2024-02-26T00:40:20;18.62;51.53
65239;SHT30;51827;51.186;6.926;2024-02-26T00:41:20;18.61;51.54
65239;SHT30;51827;51.186;6.926;2024-02-26T00:42:21;18.62;51.53
65239;SHT30;51827;51.186;6.926;2024-02-26T00:43:21;18.58;51.53
65239;SHT30;51827;51.186;6.926;2024-02-26T00:44:21;18.62;51.48
65239;SHT30;51827;51.186;6.926;2024-02-26T00:45:22;18.62;51.51
65239;SHT30;51827;51.186;6.926;2024-02-26T00:46:22;18.62;51.46
65239;SHT30;51827;51.186;6.926;2024-02-26T00:47:22;18.62;51.48
65239;SHT30;51827;51.186;6.926;2024-02-26T00:48:22;18.62;51.51
65239;SHT30;51827;51.186;6.926;2024-02-26T00:49:23;18.62;51.50
65239;SHT30;51827;51.186;6.926;2024-02-26T00:50:23;18.61;51.50
65239;SHT30;51827;51.186;6.926;2024-02-26T00:51:23;18.59;51.50
65239;SHT30;51827;51.186;6.926;2024-02-26T00:52:23;18.59;51.49
65239;SHT30;51827;51.186;6.926;2024-02-26T00:53:24;18.64;51.50
65239;SHT30;51827;51.186;6.926;2024-02-26T00:54:24;18.61;51.50
65239;SHT30;51827;51.186;6.926;2024-02-26T00:55:24;18.61;51.49
65239;SHT30;51827;51.186;6.926;2024-02-26T00:56:24;18.59;51.49
65239;SHT30;51827;51.186;6.926;2024-02-26T00:57:25;18.61;51.50
65239;SHT30;51827;51.186;6.926;2024-02-26T00:58:25;18.59;51.47
65239;SHT30;51827;51.186;6.926;2024-02-26T00:59:26;18.61;51.50
65239;SHT30;51827;51.186;6.926;2024-02-26T01:00:26;18.62;51.46
65239;SHT30;51827;51.186;6.926;2024-02-26T01:01:26;18.59;51.49
65239;SHT30;51827;51.186;6.926;2024-02-26T01:02:26;18.61;51.49
65239;SHT30;51827;51.186;6.926;2024-02-26T01:03:27;18.61;51.49
65239;SHT30;51827;51.186;6.926;2024-02-26T01:04:27;18.62;51.48
65239;SHT30;51827;51.186;6.926;2024-02-26T01:05:27;18.61;51.43
65239;SHT30;51827;51.186;6.926;2024-02-26T01:06:27;18.62;51.45
65239;SHT30;51827;51.186;6.926;2024-02-26T01:07:28;18.59;51.46
65239;SHT30;51827;51.186;6.926;2024-02-26T01:08:28;18.61;51.45
65239;SHT30;51827;51.186;6.926;2024-02-26T01:09:28;18.59;51.47
65239;SHT30;51827;51.186;6.926;2024-02-26T01:10:28;18.62;51.44
65239;SHT30;51827;51.186;6.926;2024-02-26T01:11:29;18.61;51.48
65239;SHT30;51827;51.186;6.926;2024-02-26T01:12:29;18.62;51.47
65239;SHT30;51827;51.186;6.926;2024-02-26T01:13:29;18.61;51.49
65239;SHT30;51827;51.186;6.926;2024-02-26T01:14:30;18.59;51.45
65239;SHT30;51827;51.186;6.926;2024-02-26T01:15:30;18.61;51.46
65239;SHT30;51827;51.186;6.926;2024-02-26T01:16:30;18.61;51.45
65239;SHT30;51827;51.186;6.926;2024-02-26T01:17:30;18.58;51.46
65239;SHT30;51827;51.186;6.926;2024-02-26T01:18:31;18.59;51.43
65239;SHT30;51827;51.186;6.926;2024-02-26T01:19:31;18.59;51.50
65239;SHT30;51827;51.186;6.926;2024-02-26T01:20:31;18.61;51.46
65239;SHT30;51827;51.186;6.926;2024-02-26T01:21:31;18.59;51.45
65239;SHT30;51827;51.186;6.926;2024-02-26T01:22:31;18.58;51.43
65239;SHT30;51827;51.186;6.926;2024-02-26T01:23:32;18.61;51.44
65239;SHT30;51827;51.186;6.926;2024-02-26T01:24:32;18.59;51.45
65239;SHT30;51827;51.186;6.926;2024-02-26T01:25:32;18.59;51.41
65239;SHT30;51827;51.186;6.926;2024-02-26T01:26:33;18.61;51.44
65239;SHT30;51827;51.186;6.926;2024-02-26T01:27:33;18.58;51.42
65239;SHT30;51827;51.186;6.926;2024-02-26T01:28:33;18.58;51.44
65239;SHT30;51827;51.186;6.926;2024-02-26T01:29:33;18.61;51.41
65239;SHT30;51827;51.186;6.926;2024-02-26T01:30:33;18.59;51.43
65239;SHT30;51827;51.186;6.926;2024-02-26T01:31:34;18.58;51.42
65239;SHT30;51827;51.186;6.926;2024-02-26T01:32:34;18.61;51.41
65239;SHT30;51827;51.186;6.926;2024-02-26T01:33:34;18.61;51.46
65239;SHT30;51827;51.186;6.926;2024-02-26T01:34:35;18.59;51.45
65239;SHT30;51827;51.186;6.926;2024-02-26T01:35:35;18.59;51.43
65239;SHT30;51827;51.186;6.926;2024-02-26T01:36:35;18.56;51.40
65239;SHT30;51827;51.186;6.926;2024-02-26T01:37:36;18.59;51.44
65239;SHT30;51827;51.186;6.926;2024-02-26T01:38:36;18.59;51.44
65239;SHT30;51827;51.186;6.926;2024-02-26T01:39:36;18.59;51.42
65239;SHT30;51827;51.186;6.926;2024-02-26T01:40:37;18.58;51.44
65239;SHT30;51827;51.186;6.926;2024-02-26T01:41:37;18.61;51.44
65239;SHT30;51827;51.186;6.926;2024-02-26T01:42:40;18.59;51.39
65239;SHT30;51827;51.186;6.926;2024-02-26T01:43:40;18.59;51.42
65239;SHT30;51827;51.186;6.926;2024-02-26T01:44:41;18.59;51.40
65239;SHT30;51827;51.186;6.926;2024-02-26T01:45:41;18.59;51.40
65239;SHT30;51827;51.186;6.926;2024-02-26T01:46:41;18.58;51.37
65239;SHT30;51827;51.186;6.926;2024-02-26T01:47:42;18.59;51.33
65239;SHT30;51827;51.186;6.926;2024-02-26T01:48:43;18.56;51.36
65239;SHT30;51827;51.186;6.926;2024-02-26T01:49:44;18.58;51.43
65239;SHT30;51827;51.186;6.926;2024-02-26T01:50:44;18.59;51.33
65239;SHT30;51827;51.186;6.926;2024-02-26T01:51:44;18.58;51.37
65239;SHT30;51827;51.186;6.926;2024-02-26T01:52:46;18.58;51.36
65239;SHT30;51827;51.186;6.926;2024-02-26T01:53:47;18.59;51.39
65239;SHT30;51827;51.186;6.926;2024-02-26T01:54:48;18.62;51.40
65239;SHT30;51827;51.186;6.926;2024-02-26T01:55:48;18.59;51.39
65239;SHT30;51827;51.186;6.926;2024-02-26T01:56:49;18.61;51.36
65239;SHT30;51827;51.186;6.926;2024-02-26T01:57:50;18.61;51.37
65239;SHT30;51827;51.186;6.926;2024-02-26T01:58:50;18.59;51.35
65239;SHT30;51827;51.186;6.926;2024-02-26T01:59:50;18.58;51.43
65239;SHT30;51827;51.186;6.926;2024-02-26T02:00:50;18.61;51.36
65239;SHT30;51827;51.186;6.926;2024-02-26T02:01:55;18.59;51.35
65239;SHT30;51827;51.186;6.926;2024-02-26T02:02:55;18.59;51.36
65239;SHT30;51827;51.186;6.926;2024-02-26T02:03:58;18.59;51.37
65239;SHT30;51827;51.186;6.926;2024-02-26T02:04:58;18.59;51.39
65239;SHT30;51827;51.186;6.926;2024-02-26T02:05:59;18.59;51.35
65239;SHT30;51827;51.186;6.926;2024-02-26T02:07:00;18.58;51.40
65239;SHT30;51827;51.186;6.926;2024-02-26T02:08:00;18.59;51.39
65239;SHT30;51827;51.186;6.926;2024-02-26T02:09:00;18.59;51.34
65239;SHT30;51827;51.186;6.926;2024-02-26T02:10:01;18.56;51.40
65239;SHT30;51827;51.186;6.926;2024-02-26T02:11:01;18.61;51.34
65239;SHT30;51827;51.186;6.926;2024-02-26T02:12:02;18.59;51.34
65239;SHT30;51827;51.186;6.926;2024-02-26T02:13:02;18.61;51.39
65239;SHT30;51827;51.186;6.926;2024-02-26T02:14:02;18.61;51.37
65239;SHT30;51827;51.186;6.926;2024-02-26T02:15:03;18.59;51.36
65239;SHT30;51827;51.186;6.926;2024-02-26T02:16:04;18.61;51.35
65239;SHT30;51827;51.186;6.926;2024-02-26T02:17:04;18.59;51.34
65239;SHT30;51827;51.186;6.926;2024-02-26T02:18:05;18.59;51.38
65239;SHT30;51827;51.186;6.926;2024-02-26T02:19:06;18.62;51.34
65239;SHT30;51827;51.186;6.926;2024-02-26T02:20:14;18.59;51.36
65239;SHT30;51827;51.186;6.926;2024-02-26T02:21:14;18.59;51.37
65239;SHT30;51827;51.186;6.926;2024-02-26T02:22:15;18.59;51.39
65239;SHT30;51827;51.186;6.926;2024-02-26T02:23:15;18.58;51.36
65239;SHT30;51827;51.186;6.926;2024-02-26T02:24:15;18.58;51.32
65239;SHT30;51827;51.186;6.926;2024-02-26T02:25:15;18.59;51.37
65239;SHT30;51827;51.186;6.926;2024-02-26T02:26:16;18.61;51.37
65239;SHT30;51827;51.186;6.926;2024-02-26T02:27:17;18.59;51.35
65239;SHT30;51827;51.186;6.926;2024-02-26T02:28:17;18.56;51.33
65239;SHT30;51827;51.186;6.926;2024-02-26T02:29:18;18.61;51.33
65239;SHT30;51827;51.186;6.926;2024-02-26T02:30:19;18.59;51.34
65239;SHT30;51827;51.186;6.926;2024-02-26T02:31:20;18.61;51.32
65239;SHT30;51827;51.186;6.926;2024-02-26T02:32:21;18.61;51.37
65239;SHT30;51827;51.186;6.926;2024-02-26T02:33:22;18.59;51.40
65239;SHT30;51827;51.186;6.926;2024-02-26T02:34:22;18.58;51.36
65239;SHT30;51827;51.186;6.926;2024-02-26T02:35:23;18.61;51.40
65239;SHT30;51827;51.186;6.926;2024-02-26T02:36:23;18.58;51.40
65239;SHT30;51827;51.186;6.926;2024-02-26T02:37:23;18.59;51.44
65239;SHT30;51827;51.186;6.926;2024-02-26T02:38:24;18.59;51.42
65239;SHT30;51827;51.186;6.926;2024-02-26T02:39:24;18.59;51.44
65239;SHT30;51827;51.186;6.926;2024-02-26T02:40:24;18.58;51.42
65239;SHT30;51827;51.186;6.926;2024-02-26T02:41:24;18.62;51.40
65239;SHT30;51827;51.186;6.926;2024-02-26T02:42:25;18.58;51.44
65239;SHT30;51827;51.186;6.926;2024-02-26T02:43:25;18.59;51.62
65239;SHT30;51827;51.186;6.926;2024-02-26T02:44:26;18.61;51.64
65239;SHT30;51827;51.186;6.926;2024-02-26T02:45:26;18.61;51.72
65239;SHT30;51827;51.186;6.926;2024-02-26T02:46:26;18.59;51.63
65239;SHT30;51827;51.186;6.926;2024-02-26T02:47:26;18.59;51.56
65239;SHT30;51827;51.186;6.926;2024-02-26T02:48:26;18.62;51.55
65239;SHT30;51827;51.186;6.926;2024-02-26T02:49:27;18.58;51.55
65239;SHT30;51827;51.186;6.926;2024-02-26T02:50:27;18.62;51.60
65239;SHT30;51827;51.186;6.926;2024-02-26T02:51:27;18.61;51.58
65239;SHT30;51827;51.186;6.926;2024-02-26T02:52:27;18.59;51.54
65239;SHT30;51827;51.186;6.926;2024-02-26T02:53:28;18.59;51.59
65239;SHT30;51827;51.186;6.926;2024-02-26T02:54:28;18.61;51.55
65239;SHT30;51827;51.186;6.926;2024-02-26T02:55:28;18.59;51.55
65239;SHT30;51827;51.186;6.926;2024-02-26T02:56:29;18.59;51.57
65239;SHT30;51827;51.186;6.926;2024-02-26T02:57:30;18.62;51.53
65239;SHT30;51827;51.186;6.926;2024-02-26T02:58:30;18.62;51.51
65239;SHT30;51827;51.186;6.926;2024-02-26T02:59:30;18.61;51.50
65239;SHT30;51827;51.186;6.926;2024-02-26T03:00:31;18.62;51.52
65239;SHT30;51827;51.186;6.926;2024-02-26T03:01:31;18.61;51.51
65239;SHT30;51827;51.186;6.926;2024-02-26T03:02:31;18.62;51.54
65239;SHT30;51827;51.186;6.926;2024-02-26T03:03:31;18.59;51.51
65239;SHT30;51827;51.186;6.926;2024-02-26T03:04:32;18.59;51.54
65239;SHT30;51827;51.186;6.926;2024-02-26T03:05:32;18.59;51.58
65239;SHT30;51827;51.186;6.926;2024-02-26T03:06:32;18.62;51.54
65239;SHT30;51827;51.186;6.926;2024-02-26T03:07:33;18.59;51.55
65239;SHT30;51827;51.186;6.926;2024-02-26T03:08:33;18.59;51.57
65239;SHT30;51827;51.186;6.926;2024-02-26T03:09:33;18.59;51.58
65239;SHT30;51827;51.186;6.926;2024-02-26T03:10:33;18.61;51.56
65239;SHT30;51827;51.186;6.926;2024-02-26T03:11:34;18.61;51.56
65239;SHT30;51827;51.186;6.926;2024-02-26T03:12:34;18.59;51.53
65239;SHT30;51827;51.186;6.926;2024-02-26T03:13:34;18.59;51.55
65239;SHT30;51827;51.186;6.926;2024-02-26T03:14:35;18.59;51.58
65239;SHT30;51827;51.186;6.926;2024-02-26T03:15:35;18.59;51.57
65239;SHT30;51827;51.186;6.926;2024-02-26T03:16:35;18.61;51.55
65239;SHT30;51827;51.186;6.926;2024-02-26T03:17:35;18.61;51.60
65239;SHT30;51827;51.186;6.926;2024-02-26T03:18:38;18.61;51.56
65239;SHT30;51827;51.186;6.926;2024-02-26T03:19:38;18.59;51.59
65239;SHT30;51827;51.186;6.926;2024-02-26T03:20:39;18.61;51.55
65239;SHT30;51827;51.186;6.926;2024-02-26T03:21:39;18.59;51.57
65239;SHT30;51827;51.186;6.926;2024-02-26T03:22:39;18.59;51.57
65239;SHT30;51827;51.186;6.926;2024-02-26T03:23:40;18.61;51.55
65239;SHT30;51827;51.186;6.926;2024-02-26T03:24:40;18.61;51.56
65239;SHT30;51827;51.186;6.926;2024-02-26T03:25:44;18.61;51.55
65239;SHT30;51827;51.186;6.926;2024-02-26T03:26:45;18.61;51.57
65239;SHT30;51827;51.186;6.926;2024-02-26T03:27:45;18.61;51.55
65239;SHT30;51827;51.186;6.926;2024-02-26T03:28:45;18.62;51.60
65239;SHT30;51827;51.186;6.926;2024-02-26T03:29:45;18.61;51.58
65239;SHT30;51827;51.186;6.926;2024-02-26T03:30:46;18.61;51.59
65239;SHT30;51827;51.186;6.926;2024-02-26T03:31:46;18.59;51.59
65239;SHT30;51827;51.186;6.926;2024-02-26T03:32:46;18.61;51.60
65239;SHT30;51827;51.186;6.926;2024-02-26T03:33:46;18.61;51.58
65239;SHT30;51827;51.186;6.926;2024-02-26T03:34:47;18.61;51.56
65239;SHT30;51827;51.186;6.926;2024-02-26T03:35:47;18.61;51.58
65239;SHT30;51827;51.186;6.926;2024-02-26T03:36:47;18.62;51.61
65239;SHT30;51827;51.186;6.926;2024-02-26T03:37:47;18.61;51.62
65239;SHT30;51827;51.186;6.926;2024-02-26T03:38:48;18.61;51.60
65239;SHT30;51827;51.186;6.926;2024-02-26T03:39:48;18.61;51.63
65239;SHT30;51827;51.186;6.926;2024-02-26T03:40:48;18.61;51.62
65239;SHT30;51827;51.186;6.926;2024-02-26T03:41:48;18.58;51.59
65239;SHT30;51827;51.186;6.926;2024-02-26T03:42:49;18.59;51.61
65239;SHT30;51827;51.186;6.926;2024-02-26T03:43:49;18.62;51.62
65239;SHT30;51827;51.186;6.926;2024-02-26T03:44:49;18.62;51.59
65239;SHT30;51827;51.186;6.926;2024-02-26T03:45:49;18.59;51.62
65239;SHT30;51827;51.186;6.926;2024-02-26T03:46:50;18.61;51.65
65239;SHT30;51827;51.186;6.926;2024-02-26T03:47:50;18.59;51.65
65239;SHT30;51827;51.186;6.926;2024-02-26T03:48:50;18.62;51.66
65239;SHT30;51827;51.186;6.926;2024-02-26T03:49:50;18.59;51.63
65239;SHT30;51827;51.186;6.926;2024-02-26T03:50:51;18.61;51.62
65239;SHT30;51827;51.186;6.926;2024-02-26T03:51:51;18.62;51.63
65239;SHT30;51827;51.186;6.926;2024-02-26T03:52:51;18.62;51.64
65239;SHT30;51827;51.186;6.926;2024-02-26T03:53:51;18.62;51.57
65239;SHT30;51827;51.186;6.926;2024-02-26T03:54:51;18.59;51.62
65239;SHT30;51827;51.186;6.926;2024-02-26T03:55:52;18.62;51.62
65239;SHT30;51827;51.186;6.926;2024-02-26T03:56:52;18.62;51.62
65239;SHT30;51827;51.186;6.926;2024-02-26T03:57:52;18.61;51.65
65239;SHT30;51827;51.186;6.926;2024-02-26T03:58:53;18.64;51.64
65239;SHT30;51827;51.186;6.926;2024-02-26T03:59:53;18.62;51.69
65239;SHT30;51827;51.186;6.926;2024-02-26T04:00:53;18.61;51.68
65239;SHT30;51827;51.186;6.926;2024-02-26T04:01:54;18.61;51.66
65239;SHT30;51827;51.186;6.926;2024-02-26T04:02:54;18.62;51.69
65239;SHT30;51827;51.186;6.926;2024-02-26T04:03:54;18.62;51.68
65239;SHT30;51827;51.186;6.926;2024-02-26T04:04:54;18.59;51.70
65239;SHT30;51827;51.186;6.926;2024-02-26T04:05:55;18.61;51.66
65239;SHT30;51827;51.186;6.926;2024-02-26T04:06:55;18.61;51.71
65239;SHT30;51827;51.186;6.926;2024-02-26T04:07:55;18.61;51.67
65239;SHT30;51827;51.186;6.926;2024-02-26T04:08:55;18.62;51.70
65239;SHT30;51827;51.186;6.926;2024-02-26T04:09:56;18.62;51.68
65239;SHT30;51827;51.186;6.926;2024-02-26T04:10:56;18.62;51.67
65239;SHT30;51827;51.186;6.926;2024-02-26T04:11:56;18.61;51.69
65239;SHT30;51827;51.186;6.926;2024-02-26T04:12:57;18.59;51.66
65239;SHT30;51827;51.186;6.926;2024-02-26T04:13:57;18.61;51.72
65239;SHT30;51827;51.186;6.926;2024-02-26T04:14:57;18.58;51.70
65239;SHT30;51827;51.186;6.926;2024-02-26T04:15:57;18.62;51.75
65239;SHT30;51827;51.186;6.926;2024-02-26T04:16:58;18.59;51.90
65239;SHT30;51827;51.186;6.926;2024-02-26T04:17:58;18.62;52.03
65239;SHT30;51827;51.186;6.926;2024-02-26T04:18:58;18.62;52.19
65239;SHT30;51827;51.186;6.926;2024-02-26T04:19:58;18.62;52.23
65239;SHT30;51827;51.186;6.926;2024-02-26T04:20:59;18.64;52.19
65239;SHT30;51827;51.186;6.926;2024-02-26T04:21:59;18.65;52.24
65239;SHT30;51827;51.186;6.926;2024-02-26T04:22:59;18.64;52.25
65239;SHT30;51827;51.186;6.926;2024-02-26T04:24:00;18.64;52.23
65239;SHT30;51827;51.186;6.926;2024-02-26T04:25:00;18.65;52.27
65239;SHT30;51827;51.186;6.926;2024-02-26T04:26:00;18.65;52.29
65239;SHT30;51827;51.186;6.926;2024-02-26T04:27:01;18.62;52.26
65239;SHT30;51827;51.186;6.926;2024-02-26T04:28:01;18.64;52.27
65239;SHT30;51827;51.186;6.926;2024-02-26T04:29:01;18.64;52.27
65239;SHT30;51827;51.186;6.926;2024-02-26T04:30:01;18.65;52.27
65239;SHT30;51827;51.186;6.926;2024-02-26T04:31:02;18.64;52.29
65239;SHT30;51827;51.186;6.926;2024-02-26T04:32:02;18.66;52.27
65239;SHT30;51827;51.186;6.926;2024-02-26T04:33:03;18.65;52.22
65239;SHT30;51827;51.186;6.926;2024-02-26T04:34:03;18.66;52.25
65239;SHT30;51827;51.186;6.926;2024-02-26T04:35:03;18.68;52.27
65239;SHT30;51827;51.186;6.926;2024-02-26T04:36:04;18.64;52.27
65239;SHT30;51827;51.186;6.926;2024-02-26T04:37:04;18.65;52.26
65239;SHT30;51827;51.186;6.926;2024-02-26T04:38:05;18.65;52.21
65239;SHT30;51827;51.186;6.926;2024-02-26T04:39:05;18.65;52.26
65239;SHT30;51827;51.186;6.926;2024-02-26T04:40:05;18.66;52.21
65239;SHT30;51827;51.186;6.926;2024-02-26T04:41:06;18.65;52.18
65239;SHT30;51827;51.186;6.926;2024-02-26T04:42:06;18.68;52.18
65239;SHT30;51827;51.186;6.926;2024-02-26T04:43:06;18.65;52.14
65239;SHT30;51827;51.186;6.926;2024-02-26T04:44:07;18.66;52.11
65239;SHT30;51827;51.186;6.926;2024-02-26T04:45:07;18.65;52.14
65239;SHT30;51827;51.186;6.926;2024-02-26T04:46:08;18.65;52.08
65239;SHT30;51827;51.186;6.926;2024-02-26T04:47:09;18.68;52.03
65239;SHT30;51827;51.186;6.926;2024-02-26T04:48:09;18.65;52.09
65239;SHT30;51827;51.186;6.926;2024-02-26T04:49:09;18.65;52.07
65239;SHT30;51827;51.186;6.926;2024-02-26T04:50:09;18.68;52.14
65239;SHT30;51827;51.186;6.926;2024-02-26T04:51:10;18.66;52.38
65239;SHT30;51827;51.186;6.926;2024-02-26T04:52:10;18.66;52.43
65239;SHT30;51827;51.186;6.926;2024-02-26T04:53:10;18.68;52.38
65239;SHT30;51827;51.186;6.926;2024-02-26T04:54:10;18.65;52.31
65239;SHT30;51827;51.186;6.926;2024-02-26T04:55:11;18.69;52.27
65239;SHT30;51827;51.186;6.926;2024-02-26T04:56:11;18.65;52.26
65239;SHT30;51827;51.186;6.926;2024-02-26T04:57:11;18.66;52.26
65239;SHT30;51827;51.186;6.926;2024-02-26T04:58:11;18.65;52.39
65239;SHT30;51827;51.186;6.926;2024-02-26T04:59:12;18.65;52.37
65239;SHT30;51827;51.186;6.926;2024-02-26T05:00:12;18.65;52.32
65239;SHT30;51827;51.186;6.926;2024-02-26T05:01:13;18.65;52.33
65239;SHT30;51827;51.186;6.926;2024-02-26T05:02:13;18.66;52.23
65239;SHT30;51827;51.186;6.926;2024-02-26T05:03:14;18.66;52.24
65239;SHT30;51827;51.186;6.926;2024-02-26T05:04:14;18.68;52.23
65239;SHT30;51827;51.186;6.926;2024-02-26T05:05:14;18.66;52.26
65239;SHT30;51827;51.186;6.926;2024-02-26T05:06:14;18.69;52.51
65239;SHT30;51827;51.186;6.926;2024-02-26T05:07:15;18.66;53.03
65239;SHT30;51827;51.186;6.926;2024-02-26T05:08:15;18.69;53.17
65239;SHT30;51827;51.186;6.926;2024-02-26T05:09:15;18.66;53.24
65239;SHT30;51827;51.186;6.926;2024-02-26T05:10:15;18.69;53.26
65239;SHT30;51827;51.186;6.926;2024-02-26T05:11:16;18.72;53.20
65239;SHT30;51827;51.186;6.926;2024-02-26T05:12:16;18.69;53.16
65239;SHT30;51827;51.186;6.926;2024-02-26T05:13:16;18.72;53.08
65239;SHT30;51827;51.186;6.926;2024-02-26T05:14:16;18.71;52.94
65239;SHT30;51827;51.186;6.926;2024-02-26T05:15:17;18.69;52.87
65239;SHT30;51827;51.186;6.926;2024-02-26T05:16:17;18.71;52.83
65239;SHT30;51827;51.186;6.926;2024-02-26T05:17:17;18.72;52.78
65239;SHT30;51827;51.186;6.926;2024-02-26T05:18:18;18.71;52.77
65239;SHT30;51827;51.186;6.926;2024-02-26T05:19:18;18.71;52.87
65239;SHT30;51827;51.186;6.926;2024-02-26T05:20:18;18.72;53.11
65239;SHT30;51827;51.186;6.926;2024-02-26T05:21:18;18.71;53.14
65239;SHT30;51827;51.186;6.926;2024-02-26T05:22:19;18.72;53.00
65239;SHT30;51827;51.186;6.926;2024-02-26T05:23:19;18.72;52.92
65239;SHT30;51827;51.186;6.926;2024-02-26T05:24:19;18.72;52.93
65239;SHT30;51827;51.186;6.926;2024-02-26T05:25:20;18.71;52.89
65239;SHT30;51827;51.186;6.926;2024-02-26T05:26:23;18.72;52.75
65239;SHT30;51827;51.186;6.926;2024-02-26T05:27:24;18.71;52.62
65239;SHT30;51827;51.186;6.926;2024-02-26T05:28:24;18.71;52.58
65239;SHT30;51827;51.186;6.926;2024-02-26T05:29:24;18.71;52.53
65239;SHT30;51827;51.186;6.926;2024-02-26T05:30:24;18.71;52.53
65239;SHT30;51827;51.186;6.926;2024-02-26T05:31:25;18.73;52.50
65239;SHT30;51827;51.186;6.926;2024-02-26T05:32:26;18.71;52.49
65239;SHT30;51827;51.186;6.926;2024-02-26T05:33:26;18.69;52.50
65239;SHT30;51827;51.186;6.926;2024-02-26T05:34:26;18.71;52.46
65239;SHT30;51827;51.186;6.926;2024-02-26T05:35:26;18.71;52.42
65239;SHT30;51827;51.186;6.926;2024-02-26T05:36:27;18.71;52.45
65239;SHT30;51827;51.186;6.926;2024-02-26T05:37:27;18.71;52.41
65239;SHT30;51827;51.186;6.926;2024-02-26T05:38:27;18.68;52.38
65239;SHT30;51827;51.186;6.926;2024-02-26T05:39:27;18.69;52.40
65239;SHT30;51827;51.186;6.926;2024-02-26T05:40:28;18.71;52.41
65239;SHT30;51827;51.186;6.926;2024-02-26T05:41:28;18.71;52.38
65239;SHT30;51827;51.186;6.926;2024-02-26T05:42:28;18.71;52.40
65239;SHT30;51827;51.186;6.926;2024-02-26T05:43:28;18.69;52.41
65239;SHT30;51827;51.186;6.926;2024-02-26T05:44:29;18.69;52.39
65239;SHT30;51827;51.186;6.926;2024-02-26T05:45:29;18.69;52.40
65239;SHT30;51827;51.186;6.926;2024-02-26T05:46:29;18.68;52.38
65239;SHT30;51827;51.186;6.926;2024-02-26T05:47:29;18.71;52.37
65239;SHT30;51827;51.186;6.926;2024-02-26T05:48:30;18.69;52.36
65239;SHT30;51827;51.186;6.926;2024-02-26T05:49:30;18.71;52.32
65239;SHT30;51827;51.186;6.926;2024-02-26T05:50:30;18.71;52.33
65239;SHT30;51827;51.186;6.926;2024-02-26T05:51:30;18.71;52.31
65239;SHT30;51827;51.186;6.926;2024-02-26T05:52:31;18.71;52.31
65239;SHT30;51827;51.186;6.926;2024-02-26T05:53:31;18.69;52.31
65239;SHT30;51827;51.186;6.926;2024-02-26T05:54:31;18.69;52.29
65239;SHT30;51827;51.186;6.926;2024-02-26T05:55:32;18.65;52.32
65239;SHT30;51827;51.186;6.926;2024-02-26T05:56:32;18.68;52.27
65239;SHT30;51827;51.186;6.926;2024-02-26T05:57:35;18.71;52.31
65239;SHT30;51827;51.186;6.926;2024-02-26T05:58:36;18.66;52.26
65239;SHT30;51827;51.186;6.926;2024-02-26T05:59:36;18.68;52.28
65239;SHT30;51827;51.186;6.926;2024-02-26T06:00:36;18.71;52.21
65239;SHT30;51827;51.186;6.926;2024-02-26T06:01:36;18.71;52.24
65239;SHT30;51827;51.186;6.926;2024-02-26T06:02:37;18.71;52.20
65239;SHT30;51827;51.186;6.926;2024-02-26T06:03:37;18.68;52.23
65239;SHT30;51827;51.186;6.926;2024-02-26T06:04:37;18.69;52.16
65239;SHT30;51827;51.186;6.926;2024-02-26T06:05:37;18.71;52.17
65239;SHT30;51827;51.186;6.926;2024-02-26T06:06:38;18.71;52.13
65239;SHT30;51827;51.186;6.926;2024-02-26T06:07:38;18.69;52.16
65239;SHT30;51827;51.186;6.926;2024-02-26T06:08:38;18.69;52.20
65239;SHT30;51827;51.186;6.926;2024-02-26T06:09:38;18.69;52.17
65239;SHT30;51827;51.186;6.926;2024-02-26T06:10:39;18.71;52.14
65239;SHT30;51827;51.186;6.926;2024-02-26T06:11:39;18.69;52.20
65239;SHT30;51827;51.186;6.926;2024-02-26T06:12:40;18.69;52.15
65239;SHT30;51827;51.186;6.926;2024-02-26T06:13:40;18.69;52.13
65239;SHT30;51827;51.186;6.926;2024-02-26T06:14:42;18.69;52.17
65239;SHT30;51827;51.186;6.926;2024-02-26T06:15:42;18.66;52.13
65239;SHT30;51827;51.186;6.926;2024-02-26T06:16:42;18.68;52.15
65239;SHT30;51827;51.186;6.926;2024-02-26T06:17:43;18.71;52.14
65239;SHT30;51827;51.186;6.926;2024-02-26T06:18:44;18.68;52.11
65239;SHT30;51827;51.186;6.926;2024-02-26T06:19:44;18.69;52.16
65239;SHT30;51827;51.186;6.926;2024-02-26T06:20:44;18.69;52.10